Time;durP1;ratioP1;P1;durP2;ratioP2;P2;SDS_P1;SDS_P2;PMS_P1;PMS_P2;Temp;Humidity;BMP_temperature;BMP_pressure;BME280_temperature;BME280_humidity;BME280_pressure;Samples;Min_cycle;Max_cycle;Signal;HPM_P1;HPM_P2
2024/03/20 00:01:44;;;;;;;78.40;31.60;;;;;;;3.75;63.26;101472.81;111448;1211;99061;-71
2024/03/20 00:04:09;;;;;;;73.70;29.20;;;;;;;3.75;63.40;101468.58;111436;1208;98939;-70
2024/03/20 00:06:35;;;;;;;72.50;28.30;;;;;;;3.74;63.41;101464.68;111251;1219;139524;-71
2024/03/20 00:09:01;;;;;;;66.50;28.60;;;;;;;3.73;63.32;101457.61;111428;1208;98945;-69
2024/03/20 00:11:27;;;;;;;71.60;27.50;;;;;;;3.74;63.51;101454.26;111311;1206;138759;-71
2024/03/20 00:13:52;;;;;;;68.30;26.80;;;;;;;3.73;63.36;101451.60;111438;1208;98966;-70
2024/03/20 00:16:18;;;;;;;68.80;26.70;;;;;;;3.72;63.38;101453.38;111381;1212;99055;-70
2024/03/20 00:18:43;;;;;;;60.00;28.20;;;;;;;3.71;63.63;101451.96;111276;1209;139231;-70
2024/03/20 00:21:09;;;;;;;67.00;28.20;;;;;;;3.69;63.79;101453.55;111510;1212;99016;-70
2024/03/20 00:23:34;;;;;;;59.00;26.00;;;;;;;3.63;63.52;101451.63;111116;1209;139909;-70
2024/03/20 00:26:00;;;;;;;66.20;28.10;;;;;;;3.59;63.57;101455.70;111403;1208;99080;-69
2024/03/20 00:28:26;;;;;;;68.60;29.30;;;;;;;3.57;63.64;101456.23;111496;1209;97818;-69
2024/03/20 00:30:51;;;;;;;64.60;29.50;;;;;;;3.53;63.71;101462.60;111269;1206;137809;-70
2024/03/20 00:33:16;;;;;;;67.90;29.40;;;;;;;3.49;63.87;101459.42;111477;1206;98216;-70
2024/03/20 00:35:41;;;;;;;70.90;29.90;;;;;;;3.45;63.71;101455.02;111315;1209;138196;-70
2024/03/20 00:38:07;;;;;;;72.40;28.70;;;;;;;3.41;63.88;101453.08;111492;1206;98833;-70
2024/03/20 00:40:32;;;;;;;64.60;26.90;;;;;;;3.38;64.05;101453.44;111548;1211;98959;-70
2024/03/20 00:42:57;;;;;;;67.10;27.50;;;;;;;3.35;63.81;101449.90;111239;1209;138516;-70
2024/03/20 00:45:22;;;;;;;66.40;27.50;;;;;;;3.32;63.99;101448.66;111444;1211;99070;-71
2024/03/20 00:47:47;;;;;;;65.30;27.90;;;;;;;3.30;64.17;101448.67;111282;1211;140599;-71
2024/03/20 00:50:13;;;;;;;68.40;27.90;;;;;;;3.30;64.14;101447.26;111447;1211;99018;-70
2024/03/20 00:52:38;;;;;;;62.10;28.30;;;;;;;3.29;64.08;101444.60;111373;1208;99063;-70
2024/03/20 00:55:03;;;;;;;57.20;25.80;;;;;;;3.25;63.99;101439.31;111305;1212;138669;-70
2024/03/20 00:57:28;;;;;;;67.40;27.50;;;;;;;3.23;64.15;101439.48;111374;1211;99089;-70
2024/03/20 00:59:54;;;;;;;62.90;28.80;;;;;;;3.20;64.20;101436.14;111217;1209;139185;-70
2024/03/20 01:02:19;;;;;;;69.60;28.30;;;;;;;3.18;64.35;101437.55;111499;1212;98956;-69
2024/03/20 01:04:44;;;;;;;67.80;27.10;;;;;;;3.17;64.51;101438.80;111371;1206;99069;-69
2024/03/20 01:07:09;;;;;;;63.70;27.00;;;;;;;3.17;64.42;101438.08;111372;1211;138577;-69
2024/03/20 01:09:35;;;;;;;70.70;27.90;;;;;;;3.16;64.48;101440.03;111410;1206;99047;-69
2024/03/20 01:12:00;;;;;;;67.80;29.30;;;;;;;3.13;64.65;101437.38;111338;1206;139425;-69
2024/03/20 01:14:26;;;;;;;70.50;29.40;;;;;;;3.11;64.68;101441.08;111509;1211;99000;-69
2024/03/20 01:16:51;;;;;;;70.70;28.00;;;;;;;3.10;64.69;101437.02;111358;1206;99153;-69
2024/03/20 01:19:16;;;;;;;68.10;28.30;;;;;;;3.07;64.50;101431.20;111375;1211;139207;-69
2024/03/20 01:21:41;;;;;;;68.20;29.40;;;;;;;3.07;64.67;101431.20;111400;1206;98922;-69
2024/03/20 01:24:07;;;;;;;63.80;28.90;;;;;;;3.06;64.77;101432.97;111273;1208;139225;-69
2024/03/20 01:26:32;;;;;;;67.10;27.80;;;;;;;3.05;64.73;101431.02;111491;1211;100639;-69
2024/03/20 01:28:57;;;;;;;69.00;29.90;;;;;;;3.06;64.99;101427.13;111327;1206;98934;-69
2024/03/20 01:31:23;;;;;;;74.70;29.50;;;;;;;3.07;64.96;101423.08;111339;1211;139035;-69
2024/03/20 01:33:48;;;;;;;66.90;29.40;;;;;;;3.06;65.02;101422.19;111368;1206;97702;-69
2024/03/20 01:36:14;;;;;;;77.10;30.60;;;;;;;3.04;64.98;101421.84;111305;1211;138984;-69
2024/03/20 01:38:39;;;;;;;71.40;29.80;;;;;;;3.00;65.11;101421.84;111457;1208;98929;-69
2024/03/20 01:41:04;;;;;;;74.00;30.00;;;;;;;3.00;65.00;101417.95;111304;1206;99038;-69
2024/03/20 01:43:31;;;;;;;75.60;30.50;;;;;;;2.98;65.28;101416.19;111347;1211;138204;-69
2024/03/20 01:45:57;;;;;;;71.50;29.90;;;;;;;2.95;65.18;101413.36;111249;1208;112477;-69
2024/03/20 01:48:22;;;;;;;71.00;32.20;;;;;;;2.91;65.13;101408.42;111065;1211;137912;-69
2024/03/20 01:50:48;;;;;;;70.50;28.80;;;;;;;2.89;65.09;101407.36;111322;1208;100548;-68
2024/03/20 01:53:15;;;;;;;73.70;30.40;;;;;;;2.89;65.13;101407.73;111296;1209;138463;-69
2024/03/20 01:55:42;;;;;;;71.60;31.00;;;;;;;2.88;65.28;101410.72;111450;1208;99137;-69
2024/03/20 01:58:07;;;;;;;70.80;30.20;;;;;;;2.83;65.34;101411.77;111414;1208;98933;-69
2024/03/20 02:00:32;;;;;;;73.40;30.50;;;;;;;2.81;65.42;101408.77;111308;1211;138196;-68
2024/03/20 02:03:00;;;;;;;75.50;30.30;;;;;;;2.77;65.38;101409.11;111379;1208;98954;-69
2024/03/20 02:05:27;;;;;;;74.30;31.20;;;;;;;2.74;65.20;101413.01;111291;1209;138871;-69
2024/03/20 02:07:53;;;;;;;73.00;30.80;;;;;;;2.71;65.41;101410.36;111323;1211;99048;-69
2024/03/20 02:10:19;;;;;;;74.50;30.50;;;;;;;2.64;65.40;101410.00;111360;1208;99259;-69
2024/03/20 02:12:44;;;;;;;76.90;31.70;;;;;;;2.60;65.45;101413.17;111102;1211;138753;-69
2024/03/20 02:15:09;;;;;;;69.30;29.50;;;;;;;2.60;65.68;101408.59;111204;1209;99115;-68
2024/03/20 02:17:37;;;;;;;71.90;31.00;;;;;;;2.59;65.58;101406.31;111158;1211;139892;-69
2024/03/20 02:20:05;;;;;;;80.70;31.40;;;;;;;2.57;65.65;101403.66;111181;1206;100855;-69
2024/03/20 02:22:41;;;;;;;67.80;30.80;;;;;;;2.54;65.69;101405.60;111319;1208;99289;-69
2024/03/20 02:25:07;;;;;;;71.30;31.30;;;;;;;2.52;65.76;101403.83;111316;1209;138596;-69
2024/03/20 02:27:33;;;;;;;78.20;31.80;;;;;;;2.50;65.82;101404.89;111505;1211;99037;-70
2024/03/20 02:29:58;;;;;;;73.50;31.60;;;;;;;2.50;65.77;101409.83;111372;1211;139342;-69
2024/03/20 02:32:23;;;;;;;78.10;31.40;;;;;;;2.48;66.01;101406.83;111521;1211;99029;-69
2024/03/20 02:34:48;;;;;;;74.50;32.20;;;;;;;2.45;65.93;101404.17;111473;1208;98940;-69
2024/03/20 02:37:13;;;;;;;73.30;29.80;;;;;;;2.44;65.96;101405.23;111418;1211;138670;-69
2024/03/20 02:39:39;;;;;;;71.10;30.90;;;;;;;2.41;66.03;101400.82;111429;1209;99128;-69
2024/03/20 02:42:05;;;;;;;76.50;31.40;;;;;;;2.38;65.99;101393.75;111454;1208;138469;-69
2024/03/20 02:44:34;;;;;;;72.70;31.20;;;;;;;2.37;66.07;101390.58;111462;1209;100914;-69
2024/03/20 02:47:00;;;;;;;71.90;30.30;;;;;;;2.38;66.06;101387.05;111437;1211;108706;-69
2024/03/20 02:49:25;;;;;;;69.90;31.50;;;;;;;2.40;66.29;101382.64;111333;1211;221797;-69
2024/03/20 02:51:51;;;;;;;77.60;29.60;;;;;;;2.42;66.39;101381.77;111563;1208;99466;-69
2024/03/20 02:54:16;;;;;;;79.90;31.40;;;;;;;2.43;66.33;101385.83;111357;1208;138583;-71
2024/03/20 02:56:41;;;;;;;72.10;31.40;;;;;;;2.41;66.45;101382.30;111367;1208;98945;-69
2024/03/20 02:59:06;;;;;;;78.50;33.80;;;;;;;2.39;66.31;101377.18;111381;1211;97801;-69
2024/03/20 03:01:33;;;;;;;73.90;33.00;;;;;;;2.38;66.52;101377.70;111319;1211;138444;-69
2024/03/20 03:03:58;;;;;;;69.50;29.60;;;;;;;2.37;66.51;101381.94;111346;1208;111672;-69
2024/03/20 03:06:23;;;;;;;72.70;30.90;;;;;;;2.35;66.37;101389.16;111289;1209;139266;-69
2024/03/20 03:08:48;;;;;;;77.40;31.90;;;;;;;2.31;66.61;101392.68;111421;1211;98916;-69
2024/03/20 03:11:15;;;;;;;83.70;32.00;;;;;;;2.27;66.42;101389.14;111416;1211;99257;-69
2024/03/20 03:13:41;;;;;;;71.60;31.40;;;;;;;2.25;66.68;101384.55;111353;1208;98959;-69
2024/03/20 03:16:11;;;;;;;87.70;33.40;;;;;;;2.21;66.61;101386.48;111507;1211;99101;-69
2024/03/20 03:18:36;;;;;;;80.60;32.50;;;;;;;2.17;66.61;101383.83;111223;1211;139201;-69
2024/03/20 03:21:02;;;;;;;76.60;31.80;;;;;;;2.14;66.64;101379.95;111413;1206;98929;-69
2024/03/20 03:23:27;;;;;;;77.30;31.50;;;;;;;2.13;66.89;101382.23;111301;1210;139433;-69
2024/03/20 03:25:52;;;;;;;74.30;31.60;;;;;;;2.15;66.77;101378.71;111399;1206;98949;-69
2024/03/20 03:28:18;;;;;;;78.40;33.30;;;;;;;2.15;66.93;101377.84;111500;1211;99001;-69
2024/03/20 03:30:43;;;;;;;76.10;30.70;;;;;;;2.14;66.81;101383.47;111290;1206;139057;-69
2024/03/20 03:33:08;;;;;;;77.20;31.10;;;;;;;2.13;66.86;101392.99;111491;1206;100261;-69
2024/03/20 03:35:33;;;;;;;83.90;32.70;;;;;;;2.11;66.90;101401.97;111317;1211;138854;-69
2024/03/20 03:37:58;;;;;;;75.40;31.90;;;;;;;2.09;66.93;101397.73;111385;1206;99048;-69
2024/03/20 03:40:23;;;;;;;69.80;30.80;;;;;;;2.06;66.99;101395.96;111460;1209;98939;-69
2024/03/20 03:42:49;;;;;;;73.90;31.50;;;;;;;2.04;67.06;101399.13;111287;1206;138671;-69
2024/03/20 03:45:14;;;;;;;69.90;30.70;;;;;;;2.01;67.10;101389.42;111481;1206;99064;-69
2024/03/20 03:47:39;;;;;;;77.30;31.60;;;;;;;2.02;67.24;101383.61;111263;1206;139021;-69
2024/03/20 03:50:06;;;;;;;81.10;32.80;;;;;;;2.04;67.31;101386.61;111521;1206;99145;-69
2024/03/20 03:52:32;;;;;;;75.50;32.30;;;;;;;2.06;67.20;101389.61;111458;1206;112517;-69
2024/03/20 03:54:58;;;;;;;68.80;31.20;;;;;;;2.03;67.20;101391.36;111254;1211;138796;-69
2024/03/20 03:57:23;;;;;;;79.10;32.60;;;;;;;2.01;67.32;101386.95;111407;1206;100454;-69
2024/03/20 03:59:49;;;;;;;74.40;30.20;;;;;;;2.02;67.28;101386.42;111271;1206;140932;-69
2024/03/20 04:02:17;;;;;;;78.20;30.60;;;;;;;2.02;67.34;101391.19;111419;1206;100170;-69
2024/03/20 04:04:42;;;;;;;84.90;31.30;;;;;;;2.01;67.46;101385.89;111430;1206;99225;-68
2024/03/20 04:07:08;;;;;;;76.10;30.60;;;;;;;1.99;67.31;101392.23;111331;1206;138509;-69
2024/03/20 04:09:33;;;;;;;77.80;31.30;;;;;;;1.98;67.63;101395.40;111464;1206;98225;-69
2024/03/20 04:11:59;;;;;;;76.60;31.60;;;;;;;1.98;67.45;101391.17;111314;1206;140292;-69
2024/03/20 04:14:24;;;;;;;76.30;32.20;;;;;;;2.00;67.59;101396.11;111512;1206;98739;-69
2024/03/20 04:16:49;;;;;;;74.90;30.70;;;;;;;1.99;67.62;101404.92;111343;1211;99030;-69
2024/03/20 04:19:14;;;;;;;78.90;32.10;;;;;;;1.98;67.63;101403.51;111382;1206;139180;-69
2024/03/20 04:21:40;;;;;;;77.20;34.10;;;;;;;1.96;67.50;101404.56;111362;1211;99320;-69
2024/03/20 04:24:05;;;;;;;76.00;30.60;;;;;;;1.96;67.62;101406.33;111323;1211;138598;-69
2024/03/20 04:26:31;;;;;;;74.00;32.80;;;;;;;1.96;67.74;101408.09;111479;1206;99032;-69
2024/03/20 04:28:56;;;;;;;76.00;31.40;;;;;;;1.96;67.72;101403.86;111492;1209;98984;-69
2024/03/20 04:31:22;;;;;;;72.90;31.10;;;;;;;1.97;67.96;101399.63;111387;1205;138639;-69
2024/03/20 04:33:47;;;;;;;79.90;32.90;;;;;;;1.99;67.90;101396.28;111418;1211;99054;-69
2024/03/20 04:36:12;;;;;;;78.80;33.00;;;;;;;2.00;67.81;101392.77;111272;1206;138590;-69
2024/03/20 04:38:38;;;;;;;74.30;31.80;;;;;;;2.00;68.06;101394.17;111391;1206;99576;-69
2024/03/20 04:41:04;;;;;;;77.60;31.20;;;;;;;2.00;67.95;101396.81;111385;1206;99026;-69
2024/03/20 04:43:30;;;;;;;74.00;32.00;;;;;;;2.02;68.00;101396.11;111280;1211;139745;-69
2024/03/20 04:45:55;;;;;;;88.10;33.80;;;;;;;2.02;68.07;101394.89;111486;1206;99513;-69
2024/03/20 04:48:20;;;;;;;77.70;31.50;;;;;;;2.04;68.13;101391.19;111292;1206;139659;-69
2024/03/20 04:50:47;;;;;;;75.10;31.40;;;;;;;2.04;68.02;101393.48;111426;1211;98943;-69
2024/03/20 04:53:12;;;;;;;74.40;32.60;;;;;;;2.04;68.22;101394.72;111430;1205;99408;-69
2024/03/20 04:55:38;;;;;;;75.10;32.80;;;;;;;2.06;68.19;101391.55;111305;1211;139145;-69
2024/03/20 04:58:03;;;;;;;81.40;32.60;;;;;;;2.07;68.25;101394.02;111517;1206;99422;-69
2024/03/20 05:00:28;;;;;;;82.60;29.90;;;;;;;2.07;68.21;101397.73;111312;1209;140019;-69
2024/03/20 05:02:53;;;;;;;83.30;33.70;;;;;;;2.08;68.30;101397.02;111453;1206;97088;-69
2024/03/20 05:05:18;;;;;;;79.20;31.50;;;;;;;2.09;68.23;101400.02;111365;1210;139655;-70
2024/03/20 05:07:44;;;;;;;76.00;31.00;;;;;;;2.11;68.38;101400.38;111433;1206;98983;-69
2024/03/20 05:10:09;;;;;;;80.50;32.90;;;;;;;2.13;68.39;101400.21;111471;1210;99145;-69
2024/03/20 05:12:34;;;;;;;77.20;31.10;;;;;;;2.14;68.43;101406.04;111280;1206;138480;-69
2024/03/20 05:15:02;;;;;;;68.90;29.20;;;;;;;2.14;68.34;101410.80;111508;1206;97739;-70
2024/03/20 05:17:27;;;;;;;82.40;29.20;;;;;;;2.15;68.38;101410.98;111463;1211;138633;-70
2024/03/20 05:19:53;;;;;;;81.30;30.50;;;;;;;2.17;68.50;101414.50;111394;1206;98961;-70
2024/03/20 05:22:18;;;;;;;76.80;31.60;;;;;;;2.18;68.40;101416.98;111562;1206;99048;-69
2024/03/20 05:24:49;;;;;;;80.00;31.00;;;;;;;2.19;68.57;101420.86;111310;1206;141832;-69
2024/03/20 05:27:14;;;;;;;74.40;30.50;;;;;;;2.21;68.69;101416.64;111492;1208;98946;-70
2024/03/20 05:29:39;;;;;;;74.60;29.80;;;;;;;2.22;68.60;101408.52;111307;1211;139623;-70
2024/03/20 05:32:06;;;;;;;73.70;30.30;;;;;;;2.24;68.62;101400.06;111533;1210;99000;-69
2024/03/20 05:34:31;;;;;;;71.80;31.20;;;;;;;2.26;68.71;101399.19;111425;1206;98935;-69
2024/03/20 05:36:56;;;;;;;72.90;29.60;;;;;;;2.28;68.68;101401.31;111242;1211;138634;-70
2024/03/20 05:39:23;;;;;;;70.60;30.00;;;;;;;2.30;68.69;101400.79;111466;1206;98948;-71
2024/03/20 05:41:48;;;;;;;75.40;30.40;;;;;;;2.32;68.64;101399.20;111260;1211;139218;-69
2024/03/20 05:44:16;;;;;;;73.90;31.00;;;;;;;2.33;68.64;101393.73;111285;1206;100528;-69
2024/03/20 05:46:43;;;;;;;80.30;32.30;;;;;;;2.35;68.76;101394.98;111366;1211;98455;-70
2024/03/20 05:49:09;;;;;;;71.70;29.10;;;;;;;2.38;68.72;101393.92;111298;1206;139096;-70
2024/03/20 05:51:34;;;;;;;64.10;26.90;;;;;;;2.42;68.85;101395.35;111469;1206;98641;-69
2024/03/20 05:53:59;;;;;;;80.30;32.40;;;;;;;2.44;68.80;101392.54;111284;1211;139357;-69
2024/03/20 05:56:24;;;;;;;83.30;32.80;;;;;;;2.49;68.94;101393.60;111476;1210;99018;-69
2024/03/20 05:58:51;;;;;;;73.50;32.60;;;;;;;2.54;68.85;101394.31;111410;1211;98951;-69
2024/03/20 06:01:16;;;;;;;73.70;31.60;;;;;;;2.57;68.88;101399.26;111252;1206;138445;-69
2024/03/20 06:03:42;;;;;;;71.10;31.20;;;;;;;2.61;68.95;101390.59;111437;1212;99038;-70
2024/03/20 06:06:07;;;;;;;67.70;30.70;;;;;;;2.67;68.91;101381.94;111311;1206;138991;-70
2024/03/20 06:08:32;;;;;;;78.40;30.70;;;;;;;2.71;68.86;101382.47;111417;1206;98994;-69
2024/03/20 06:10:58;;;;;;;71.90;30.20;;;;;;;2.76;69.00;101384.23;111439;1207;99113;-70
2024/03/20 06:13:24;;;;;;;74.40;31.60;;;;;;;2.80;69.00;101384.41;111305;1206;138738;-70
2024/03/20 06:15:49;;;;;;;82.50;32.60;;;;;;;2.86;69.15;101389.02;111481;1210;99019;-70
2024/03/20 06:18:14;;;;;;;69.10;30.70;;;;;;;2.90;68.93;101393.06;111346;1206;138509;-70
2024/03/20 06:20:41;;;;;;;71.10;29.30;;;;;;;2.96;69.09;101396.95;111388;1207;99032;-69
2024/03/20 06:23:06;;;;;;;71.80;29.90;;;;;;;3.01;69.06;101402.95;111481;1206;100354;-69
2024/03/20 06:25:32;;;;;;;83.20;29.50;;;;;;;3.06;69.19;101403.83;111328;1206;138858;-69
2024/03/20 06:27:57;;;;;;;102.10;31.90;;;;;;;3.09;69.22;101407.01;111276;1206;99013;-69
2024/03/20 06:30:25;;;;;;;79.90;32.00;;;;;;;3.13;69.23;101405.59;111358;1210;138734;-69
2024/03/20 06:32:51;;;;;;;82.60;30.00;;;;;;;3.17;68.89;101407.36;111407;1206;98786;-69
2024/03/20 06:35:16;;;;;;;80.00;30.80;;;;;;;3.22;69.17;101403.11;111440;1209;99059;-69
2024/03/20 06:37:41;;;;;;;73.90;28.70;;;;;;;3.25;68.94;101398.16;111308;1206;138519;-69
2024/03/20 06:40:08;;;;;;;81.90;29.90;;;;;;;3.29;69.09;101398.70;111415;1209;99725;-69
2024/03/20 06:42:35;;;;;;;74.20;29.20;;;;;;;3.33;68.95;101393.20;111334;1209;140140;-69
2024/03/20 06:45:00;;;;;;;70.70;28.40;;;;;;;3.36;69.05;101389.66;111438;1206;98931;-69
2024/03/20 06:47:25;;;;;;;70.30;29.60;;;;;;;3.38;69.10;101390.72;111315;1207;138914;-69
2024/03/20 06:49:51;;;;;;;77.20;29.80;;;;;;;3.41;69.12;101391.95;111410;1206;98951;-69
2024/03/20 06:52:19;;;;;;;76.20;30.70;;;;;;;3.44;68.90;101394.23;111450;1206;99099;-69
2024/03/20 06:54:46;;;;;;;85.70;30.40;;;;;;;3.46;69.12;101395.65;111359;1209;138189;-69
2024/03/20 06:57:13;;;;;;;85.60;30.80;;;;;;;3.47;69.15;101403.06;111336;1206;99506;-69
2024/03/20 06:59:38;;;;;;;71.90;28.50;;;;;;;3.48;69.09;101405.90;111288;1210;138605;-69
2024/03/20 07:02:04;;;;;;;82.80;29.20;;;;;;;3.50;69.02;101406.42;111463;1211;99054;-69
2024/03/20 07:04:29;;;;;;;97.10;30.30;;;;;;;3.52;69.31;101406.59;111465;1207;98910;-69
2024/03/20 07:06:54;;;;;;;66.70;28.20;;;;;;;3.54;69.27;101407.82;111341;1206;138570;-69
2024/03/20 07:09:20;;;;;;;80.80;28.30;;;;;;;3.56;69.07;101411.17;111485;1211;99057;-69
2024/03/20 07:11:48;;;;;;;75.50;28.50;;;;;;;3.57;69.22;101403.75;111156;1206;138343;-69
2024/03/20 07:14:15;;;;;;;89.80;30.80;;;;;;;3.58;69.25;101400.40;111497;1210;99379;-70
2024/03/20 07:16:40;;;;;;;87.90;31.20;;;;;;;3.60;69.20;101397.91;111466;1207;97610;-69
2024/03/20 07:19:05;;;;;;;67.60;28.60;;;;;;;3.63;69.14;101400.55;111396;1210;137750;-69
2024/03/20 07:21:30;;;;;;;76.00;31.20;;;;;;;3.65;69.08;101399.14;111466;1207;98936;-69
2024/03/20 07:23:57;;;;;;;76.30;31.70;;;;;;;3.67;69.15;101400.19;111377;1206;139836;-70
2024/03/20 07:26:22;;;;;;;70.30;29.60;;;;;;;3.69;69.09;101400.00;111423;1207;98934;-70
2024/03/20 07:28:47;;;;;;;65.40;27.20;;;;;;;3.69;69.10;101398.77;111409;1211;99017;-70
2024/03/20 07:31:14;;;;;;;76.70;28.20;;;;;;;3.72;69.02;101399.30;111394;1207;138263;-70
2024/03/20 07:33:40;;;;;;;70.00;29.70;;;;;;;3.75;69.12;101400.16;111491;1210;107569;-70
2024/03/20 07:36:05;;;;;;;64.70;27.90;;;;;;;3.79;69.14;101398.73;111320;1206;139216;-70
2024/03/20 07:38:30;;;;;;;69.60;28.50;;;;;;;3.83;69.11;101400.66;111393;1208;98972;-70
2024/03/20 07:40:56;;;;;;;73.80;28.00;;;;;;;3.87;69.04;101399.95;111457;1209;98958;-70
2024/03/20 07:43:22;;;;;;;79.10;29.30;;;;;;;3.92;69.26;101397.62;111384;1222;140390;-70
2024/03/20 07:45:47;;;;;;;66.60;28.50;;;;;;;3.97;69.30;101395.83;111461;1206;98642;-70
2024/03/20 07:48:14;;;;;;;73.90;29.60;;;;;;;4.02;69.08;101393.33;111435;1206;138578;-70
2024/03/20 07:50:40;;;;;;;71.60;28.10;;;;;;;4.08;69.12;101395.95;111421;1210;99032;-70
2024/03/20 07:53:05;;;;;;;73.10;27.30;;;;;;;4.14;69.25;101397.70;111532;1206;98938;-71
2024/03/20 07:55:33;;;;;;;66.80;28.30;;;;;;;4.20;69.18;101397.14;111315;1211;138480;-66
2024/03/20 07:57:58;;;;;;;62.50;27.20;;;;;;;4.27;69.36;101396.05;111429;1206;99471;-67
2024/03/20 08:00:31;;;;;;;69.30;26.40;;;;;;;4.34;69.11;101395.46;111439;1206;140138;-68
2024/03/20 08:02:57;;;;;;;61.50;25.00;;;;;;;4.38;69.00;101394.02;111402;1211;97796;-67
2024/03/20 08:05:26;;;;;;;64.10;25.80;;;;;;;4.43;69.30;101395.59;111255;1207;142040;-67
2024/03/20 08:07:52;;;;;;;53.70;24.50;;;;;;;4.48;69.24;101396.45;111511;1209;99848;-68
2024/03/20 08:10:17;;;;;;;59.10;26.80;;;;;;;4.54;69.13;101391.80;113159;1206;97150;-69
2024/03/20 08:12:43;;;;;;;56.70;24.70;;;;;;;4.60;69.24;101392.46;112023;1208;138450;-69
2024/03/20 08:15:09;;;;;;;56.80;24.90;;;;;;;4.68;69.23;101387.80;111500;1207;98965;-66
2024/03/20 08:17:36;;;;;;;57.50;24.70;;;;;;;4.75;69.28;101384.93;111569;1209;139609;-68
2024/03/20 08:20:23;;;;;;;62.20;26.10;;;;;;;4.82;69.25;101383.98;111450;1206;98942;-68
2024/03/20 08:22:49;;;;;;;62.30;24.90;;;;;;;4.86;69.15;101388.38;111340;1211;107910;-68
2024/03/20 08:25:14;;;;;;;64.30;26.20;;;;;;;4.87;69.06;101386.77;111377;1206;138954;-68
2024/03/20 08:27:39;;;;;;;66.00;28.00;;;;;;;4.89;69.26;101384.99;111535;1207;100427;-68
2024/03/20 08:30:06;;;;;;;64.90;27.20;;;;;;;4.91;69.16;101388.70;111379;1210;138705;-68
2024/03/20 08:32:31;;;;;;;59.20;27.20;;;;;;;4.96;68.87;101393.97;111487;1211;99144;-69
2024/03/20 08:34:58;;;;;;;65.00;28.20;;;;;;;4.97;69.07;101394.31;111457;1206;97804;-68
2024/03/20 08:37:24;;;;;;;58.60;26.60;;;;;;;4.98;69.01;101393.06;111269;1207;138383;-68
2024/03/20 08:39:51;;;;;;;61.40;26.10;;;;;;;5.00;69.03;101390.39;111408;1209;99167;-69
2024/03/20 08:42:17;;;;;;;58.20;27.50;;;;;;;5.02;68.95;101388.08;111357;1206;140557;-68
2024/03/20 08:44:43;;;;;;;67.40;28.10;;;;;;;5.06;68.91;101381.13;111566;1205;99914;-68
2024/03/20 08:47:08;;;;;;;63.10;27.60;;;;;;;5.08;68.89;101378.80;111492;1211;113017;-68
2024/03/20 08:49:37;;;;;;;63.30;27.70;;;;;;;5.10;68.86;101383.74;111385;1208;138303;-68
2024/03/20 08:52:06;;;;;;;63.10;24.90;;;;;;;5.13;68.74;101384.60;111469;1209;98926;-68
2024/03/20 08:54:33;;;;;;;59.70;26.20;;;;;;;5.16;68.72;101381.38;111987;1211;139035;-68
2024/03/20 08:57:07;;;;;;;53.80;24.80;;;;;;;5.18;68.63;101378.52;111468;1210;98946;-68
2024/03/20 08:59:33;;;;;;;51.90;24.00;;;;;;;5.24;68.83;101380.92;111625;1208;138781;-68
2024/03/20 09:01:59;;;;;;;56.10;25.70;;;;;;;5.30;68.74;101382.99;111457;1211;99040;-69
2024/03/20 09:04:24;;;;;;;54.60;23.40;;;;;;;5.36;68.66;101382.92;111485;1211;98948;-68
2024/03/20 09:06:49;;;;;;;56.40;24.50;;;;;;;5.41;68.68;101379.86;111279;1210;139175;-69
2024/03/20 09:09:14;;;;;;;51.60;22.90;;;;;;;5.47;68.64;101382.98;111491;1206;99523;-69
2024/03/20 09:11:39;;;;;;;53.10;23.80;;;;;;;5.54;68.65;101383.09;111276;1209;140040;-68
2024/03/20 09:14:05;;;;;;;69.00;24.70;;;;;;;5.60;68.45;101380.90;111465;1206;98945;-68
2024/03/20 09:16:31;;;;;;;54.20;25.80;;;;;;;5.67;68.52;101380.29;111508;1208;99113;-72
2024/03/20 09:18:57;;;;;;;51.90;24.10;;;;;;;5.71;68.51;101377.94;111557;1206;138531;-68
2024/03/20 09:21:22;;;;;;;52.20;25.00;;;;;;;5.78;68.57;101380.16;111667;1208;99043;-70
2024/03/20 09:23:47;;;;;;;52.30;23.60;;;;;;;5.84;68.48;101380.79;111549;1208;137979;-70
2024/03/20 09:26:13;;;;;;;56.20;25.00;;;;;;;5.92;68.34;101377.90;111532;1209;98217;-71
2024/03/20 09:28:38;;;;;;;50.90;23.10;;;;;;;5.97;68.36;101377.65;111482;1209;98992;-71
2024/03/20 09:31:04;;;;;;;56.40;24.00;;;;;;;6.04;68.28;101375.77;111248;1211;138056;-71
2024/03/20 09:33:29;;;;;;;46.90;22.50;;;;;;;6.11;68.21;101379.60;111490;1210;98958;-71
2024/03/20 09:35:55;;;;;;;47.90;22.60;;;;;;;6.16;68.10;101380.58;111413;1211;138854;-70
2024/03/20 09:38:21;;;;;;;44.50;21.40;;;;;;;6.25;67.98;101383.14;111489;1206;107787;-71
2024/03/20 09:40:48;;;;;;;49.40;23.60;;;;;;;6.28;67.86;101381.85;111499;1211;100417;-70
2024/03/20 09:43:14;;;;;;;45.40;22.20;;;;;;;6.29;67.91;101378.64;111326;1211;139772;-69
2024/03/20 09:45:41;;;;;;;51.30;23.30;;;;;;;6.32;67.87;101370.79;111440;1206;98997;-69
2024/03/20 09:48:10;;;;;;;51.40;23.10;;;;;;;6.37;67.82;101372.48;111530;1211;137869;-70
2024/03/20 09:50:40;;;;;;;46.60;21.80;;;;;;;6.43;67.81;101369.38;111528;1207;99071;-70
2024/03/20 09:53:05;;;;;;;53.80;21.10;;;;;;;6.48;67.72;101367.36;111638;1206;99400;-71
2024/03/20 09:55:37;;;;;;;43.60;21.30;;;;;;;6.49;67.63;101368.05;111463;1206;138003;-71
2024/03/20 09:58:03;;;;;;;44.50;19.90;;;;;;;6.51;67.57;101366.95;111679;1209;99412;-70
2024/03/20 10:00:30;;;;;;;45.80;22.00;;;;;;;6.61;67.50;101364.50;111467;1211;138029;-70
2024/03/20 10:02:56;;;;;;;45.50;21.00;;;;;;;6.69;67.45;101362.05;111561;1210;97512;-70
2024/03/20 10:05:22;;;;;;;44.00;21.00;;;;;;;6.77;67.36;101362.64;111508;1211;137878;-71
2024/03/20 10:07:51;;;;;;;44.00;21.10;;;;;;;6.84;67.30;101359.50;111710;1206;97448;-72
2024/03/20 10:10:17;;;;;;;41.00;21.30;;;;;;;6.89;67.16;101360.49;111571;1208;107454;-70
2024/03/20 10:12:46;;;;;;;37.90;20.60;;;;;;;6.92;67.23;101354.91;111503;1209;137889;-69
2024/03/20 10:15:12;;;;;;;46.60;20.70;;;;;;;7.02;67.24;101354.23;113254;1206;96979;-67
2024/03/20 10:17:42;;;;;;;40.30;19.20;;;;;;;7.08;67.10;101349.84;111986;1206;138925;-69
2024/03/20 10:20:15;;;;;;;43.20;20.20;;;;;;;7.18;66.84;101350.73;111601;1206;99646;-67
2024/03/20 10:22:41;;;;;;;44.00;21.30;;;;;;;7.24;66.93;101347.25;111515;1211;107302;-68
2024/03/20 10:25:10;;;;;;;45.10;21.90;;;;;;;7.29;66.78;101348.22;111439;1209;137897;-67
2024/03/20 10:27:37;;;;;;;58.70;25.40;;;;;;;7.32;66.78;101347.98;111540;1206;98904;-71
2024/03/20 10:30:04;;;;;;;39.20;19.90;;;;;;;7.37;66.68;101347.53;110770;1211;138215;-73
2024/03/20 10:32:31;;;;;;;37.20;17.90;;;;;;;7.41;66.60;101343.38;111825;1210;99023;-72
2024/03/20 10:35:00;;;;;;;37.90;18.90;;;;;;;7.43;66.49;101338.16;111579;1209;98981;-71
2024/03/20 10:37:27;;;;;;;42.40;19.00;;;;;;;7.48;66.39;101330.25;111411;1211;137777;-70
2024/03/20 10:39:55;;;;;;;33.90;17.70;;;;;;;7.55;66.34;101328.88;111506;1211;98999;-70
2024/03/20 10:42:22;;;;;;;46.40;20.10;;;;;;;7.59;66.25;101329.33;111399;1211;138810;-70
2024/03/20 10:44:48;;;;;;;40.50;19.80;;;;;;;7.60;66.16;101328.59;111489;1208;99251;-70
2024/03/20 10:47:14;;;;;;;35.20;18.40;;;;;;;7.65;66.07;101324.75;111518;1211;99020;-69
2024/03/20 10:49:40;;;;;;;37.70;19.90;;;;;;;7.74;66.01;101326.70;111424;1209;138198;-70
2024/03/20 10:52:07;;;;;;;39.00;19.60;;;;;;;7.81;65.91;101319.60;111540;1206;112825;-70
2024/03/20 10:54:32;;;;;;;36.10;19.40;;;;;;;7.86;65.69;101318.41;111462;1207;138813;-72
2024/03/20 10:56:58;;;;;;;41.50;19.10;;;;;;;7.90;65.69;101322.59;111473;1211;99341;-70
2024/03/20 10:59:26;;;;;;;37.30;18.90;;;;;;;7.96;65.61;101315.88;111458;1210;137856;-70